createdAt,value
2018-11-03T00:00:58.176Z,7.92
2018-11-03T00:02:04.422Z,7.93
2018-11-03T00:03:11.095Z,7.89
2018-11-03T00:04:16.791Z,7.88
2018-11-03T00:05:22.995Z,7.84
2018-11-03T00:06:30.683Z,7.81
2018-11-03T00:07:35.415Z,7.78
2018-11-03T00:08:42.088Z,7.76
2018-11-03T00:09:47.849Z,7.77
2018-11-03T00:10:54.003Z,7.76
2018-11-03T00:12:00.690Z,7.77
2018-11-03T00:13:06.889Z,7.79
2018-11-03T00:14:13.094Z,7.80
2018-11-03T00:15:19.289Z,7.80
2018-11-03T00:16:25.581Z,7.79
2018-11-03T00:17:31.692Z,7.77
2018-11-03T00:18:37.913Z,7.77
2018-11-03T00:19:44.098Z,7.81
2018-11-03T00:20:50.338Z,7.83
2018-11-03T00:21:56.029Z,7.83
2018-11-03T00:23:02.750Z,7.83
2018-11-03T00:24:08.432Z,7.84
2018-11-03T00:25:15.126Z,7.84
2018-11-03T00:26:20.844Z,7.82
2018-11-03T00:27:27.583Z,7.83
2018-11-03T00:28:33.765Z,7.80
2018-11-03T00:29:39.444Z,7.82
2018-11-03T00:30:46.145Z,7.83
2018-11-03T00:31:51.843Z,7.85
2018-11-03T00:32:58.570Z,7.87
2018-11-03T00:34:04.741Z,7.85
2018-11-03T00:35:10.460Z,7.85
2018-11-03T00:36:16.656Z,7.86
2018-11-03T00:37:22.900Z,7.84
2018-11-03T00:38:29.573Z,7.84
2018-11-03T00:39:35.777Z,7.85
2018-11-03T00:40:41.957Z,7.85
2018-11-03T00:41:48.162Z,7.86
2018-11-03T00:42:53.965Z,7.86
2018-11-03T00:44:00.574Z,7.85
2018-11-03T00:45:06.269Z,7.84
2018-11-03T00:46:12.964Z,7.83
2018-11-03T00:47:19.175Z,7.83
2018-11-03T00:48:25.373Z,7.81
2018-11-03T00:49:31.597Z,7.82
2018-11-03T00:50:37.781Z,7.82
2018-11-03T00:51:44.004Z,7.83
2018-11-03T00:52:49.698Z,7.83
2018-11-03T00:53:56.391Z,7.84
2018-11-03T00:55:02.592Z,7.88
2018-11-03T00:56:08.790Z,7.90
2018-11-03T00:57:15.024Z,7.91
2018-11-03T00:58:21.203Z,7.91
2018-11-03T00:59:27.391Z,7.91
2018-11-03T01:00:33.119Z,7.91
2018-11-03T01:01:39.314Z,7.91
2018-11-03T01:02:46.007Z,7.89
2018-11-03T01:03:51.719Z,7.89
2018-11-03T01:04:57.910Z,7.87
2018-11-03T01:06:04.604Z,7.89
2018-11-03T01:07:10.809Z,7.90
2018-11-03T01:08:17.008Z,7.87
2018-11-03T01:09:23.208Z,7.85
2018-11-03T01:10:28.915Z,7.83
2018-11-03T01:11:35.613Z,7.81
2018-11-03T01:12:41.828Z,7.85
2018-11-03T01:13:48.013Z,7.86
2018-11-03T01:14:54.224Z,7.88
2018-11-03T01:16:00.424Z,7.86
2018-11-03T01:17:06.616Z,7.85
2018-11-03T01:18:12.833Z,7.84
2018-11-03T01:19:19.022Z,7.82
2018-11-03T01:20:24.735Z,7.81
2018-11-03T01:21:30.937Z,7.82
2018-11-03T01:22:37.648Z,7.82
2018-11-03T01:23:43.882Z,7.78
2018-11-03T01:24:49.545Z,7.75
2018-11-03T01:25:55.735Z,7.73
2018-11-03T01:27:02.939Z,7.72
2018-11-03T01:28:08.635Z,7.73
2018-11-03T01:29:14.849Z,7.78
2018-11-03T01:30:21.030Z,7.78
2018-11-03T01:31:27.247Z,7.77
2018-11-03T01:32:33.008Z,7.76
2018-11-03T01:33:39.155Z,7.76
2018-11-03T01:34:45.847Z,7.72
2018-11-03T01:35:51.555Z,7.71
2018-11-03T01:36:57.749Z,7.70
2018-11-03T01:38:03.948Z,7.72
2018-11-03T01:39:10.162Z,7.72
2018-11-03T01:40:16.872Z,7.73
2018-11-03T01:41:23.055Z,7.72
2018-11-03T01:42:29.265Z,7.72
2018-11-03T01:43:34.965Z,7.68
2018-11-03T01:44:41.665Z,7.68
2018-11-03T01:45:47.355Z,7.66
2018-11-03T01:46:53.586Z,7.62
2018-11-03T01:48:00.250Z,7.59
2018-11-03T01:49:06.463Z,7.57
2018-11-03T01:50:12.658Z,7.57
2018-11-03T01:51:18.861Z,7.51
2018-11-03T01:52:24.567Z,7.48
2018-11-03T01:53:31.250Z,7.45
2018-11-03T01:54:37.447Z,7.36
2018-11-03T01:55:43.645Z,7.26
2018-11-03T01:56:50.352Z,7.18
2018-11-03T01:57:55.577Z,7.12
2018-11-03T01:59:01.753Z,7.13
2018-11-03T02:00:08.436Z,7.14
2018-11-03T02:01:14.633Z,7.13
2018-11-03T02:02:20.889Z,7.13
2018-11-03T02:03:26.541Z,7.10
2018-11-03T02:04:33.232Z,7.04
2018-11-03T02:05:39.411Z,6.95
2018-11-03T02:06:45.621Z,6.93
2018-11-03T02:07:51.799Z,6.93
2018-11-03T02:08:58.023Z,6.89
2018-11-03T02:10:04.192Z,6.83
2018-11-03T02:11:10.384Z,6.79
2018-11-03T02:12:16.576Z,6.76
2018-11-03T02:13:22.260Z,6.73
2018-11-03T02:14:28.946Z,6.65
2018-11-03T02:15:35.142Z,6.59
2018-11-03T02:16:41.325Z,6.56
2018-11-03T02:17:47.570Z,6.50
2018-11-03T02:18:53.216Z,6.41
2018-11-03T02:19:59.388Z,6.31
2018-11-03T02:21:05.582Z,6.24
2018-11-03T02:22:12.251Z,6.20
2018-11-03T02:23:18.428Z,6.24
2018-11-03T02:24:24.136Z,6.28
2018-11-03T02:25:30.297Z,6.31
2018-11-03T02:26:36.977Z,6.36
2018-11-03T02:27:43.145Z,6.40
2018-11-03T02:28:49.344Z,6.39
2018-11-03T02:29:55.017Z,6.38
2018-11-03T02:31:01.682Z,6.44
2018-11-03T02:32:07.365Z,6.52
2018-11-03T02:33:14.042Z,6.51
2018-11-03T02:34:19.732Z,6.56
2018-11-03T02:35:25.897Z,6.60
2018-11-03T02:36:32.167Z,6.59
2018-11-03T02:37:38.747Z,6.59
2018-11-03T02:38:44.941Z,6.62
2018-11-03T02:39:51.097Z,6.67
2018-11-03T02:40:57.288Z,6.73
2018-11-03T02:42:03.564Z,6.76
2018-11-03T02:43:09.631Z,6.80
2018-11-03T02:44:15.822Z,6.84
2018-11-03T02:45:21.590Z,6.85
2018-11-03T02:46:28.171Z,6.85
2018-11-03T02:47:34.357Z,6.87
2018-11-03T02:48:40.542Z,6.87
2018-11-03T02:49:46.749Z,6.87
2018-11-03T02:50:52.428Z,6.88
2018-11-03T02:51:59.085Z,6.92
2018-11-03T02:53:04.770Z,6.95
2018-11-03T02:54:11.454Z,6.92
2018-11-03T02:55:17.118Z,6.89
2018-11-03T02:56:23.799Z,6.87
2018-11-03T02:57:29.989Z,6.84
2018-11-03T02:58:36.162Z,6.81
2018-11-03T02:59:42.351Z,6.78
2018-11-03T03:00:48.504Z,6.76
2018-11-03T03:01:54.198Z,6.75
2018-11-03T03:03:00.412Z,6.77
2018-11-03T03:04:06.557Z,6.81
2018-11-03T03:05:12.720Z,6.85
2018-11-03T03:06:18.910Z,6.84
2018-11-03T03:07:25.074Z,6.80
2018-11-03T03:08:31.759Z,6.79
2018-11-03T03:09:37.938Z,6.76
2018-11-03T03:10:44.121Z,6.76
2018-11-03T03:11:49.797Z,6.69
2018-11-03T03:12:56.462Z,6.61
2018-11-03T03:14:02.156Z,6.58
2018-11-03T03:15:08.328Z,6.51
2018-11-03T03:16:14.514Z,6.52
2018-11-03T03:17:20.690Z,6.52
2018-11-03T03:18:27.060Z,6.52
2018-11-03T03:19:33.049Z,6.50
2018-11-03T03:20:39.715Z,6.44
2018-11-03T03:21:45.373Z,6.37
2018-11-03T03:22:52.046Z,6.36
2018-11-03T03:23:57.734Z,6.33
2018-11-03T03:25:04.401Z,6.25
2018-11-03T03:26:10.082Z,6.18
2018-11-03T03:27:16.245Z,6.14
2018-11-03T03:28:22.413Z,6.11
2018-11-03T03:29:28.715Z,6.13
2018-11-03T03:30:35.257Z,6.10
2018-11-03T03:31:41.416Z,6.04
2018-11-03T03:32:47.102Z,6.01
2018-11-03T03:33:53.265Z,6.02
2018-11-03T03:34:59.439Z,5.99
2018-11-03T03:36:06.095Z,5.97
2018-11-03T03:37:12.279Z,5.99
2018-11-03T03:38:17.939Z,5.99
2018-11-03T03:39:24.108Z,6.04
2018-11-03T03:40:30.265Z,6.11
2018-11-03T03:41:36.923Z,6.11
2018-11-03T03:42:42.601Z,6.17
2018-11-03T03:43:49.246Z,6.20
2018-11-03T03:44:54.928Z,6.21
2018-11-03T03:46:01.585Z,6.22
2018-11-03T03:47:07.254Z,6.25
2018-11-03T03:48:13.925Z,6.23
2018-11-03T03:49:20.081Z,6.24
2018-11-03T03:50:25.738Z,6.21
2018-11-03T03:51:31.921Z,6.17
2018-11-03T03:52:38.081Z,6.18
2018-11-03T03:53:44.237Z,6.14
2018-11-03T03:54:50.906Z,6.13
2018-11-03T03:55:57.064Z,6.10
2018-11-03T03:57:02.733Z,6.11
2018-11-03T03:58:09.392Z,6.11
2018-11-03T03:59:15.051Z,6.07
2018-11-03T04:00:21.709Z,6.04
2018-11-03T04:01:27.866Z,6.05
2018-11-03T04:02:34.054Z,6.06
2018-11-03T04:03:39.697Z,6.05
2018-11-03T04:04:46.364Z,6.03
2018-11-03T04:05:52.530Z,5.99
2018-11-03T04:06:58.684Z,5.94
2018-11-03T04:08:04.829Z,5.90
2018-11-03T04:09:10.505Z,5.87
2018-11-03T04:10:17.155Z,5.78
2018-11-03T04:11:22.820Z,5.80
2018-11-03T04:12:28.970Z,5.82
2018-11-03T04:13:35.133Z,5.75
2018-11-03T04:14:41.795Z,5.59
2018-11-03T04:15:47.936Z,5.57
2018-11-03T04:16:54.099Z,5.67
2018-11-03T04:17:59.765Z,5.64
2018-11-03T04:19:05.918Z,5.68
2018-11-03T04:20:12.567Z,5.68
2018-11-03T04:21:18.722Z,5.61
2018-11-03T04:22:24.384Z,5.61
2018-11-03T04:23:30.585Z,5.74
2018-11-03T04:24:36.689Z,5.73
2018-11-03T04:25:42.841Z,5.64
2018-11-03T04:26:49.561Z,5.58
2018-11-03T04:27:55.143Z,5.58
2018-11-03T04:29:01.295Z,5.59
2018-11-03T04:30:07.946Z,5.54
2018-11-03T04:31:15.077Z,5.52
2018-11-03T04:32:19.745Z,5.47
2018-11-03T04:33:25.899Z,5.50
2018-11-03T04:34:32.535Z,5.48
2018-11-03T04:35:38.193Z,5.43
2018-11-03T04:36:44.838Z,5.37
2018-11-03T04:37:50.990Z,5.33
2018-11-03T04:38:56.639Z,5.31
2018-11-03T04:40:02.793Z,5.33
2018-11-03T04:41:09.419Z,5.31
2018-11-03T04:42:15.083Z,5.26
2018-11-03T04:43:21.714Z,5.21
2018-11-03T04:44:27.860Z,5.22
2018-11-03T04:45:34.076Z,5.21
2018-11-03T04:46:39.698Z,5.19
2018-11-03T04:47:45.807Z,5.09
2018-11-03T04:48:52.443Z,5.08
2018-11-03T04:49:58.610Z,5.01
2018-11-03T04:51:04.747Z,5.01
2018-11-03T04:52:10.882Z,4.97
2018-11-03T04:53:17.033Z,4.92
2018-11-03T04:54:23.183Z,4.90
2018-11-03T04:55:29.319Z,4.83
2018-11-03T04:56:34.967Z,4.74
2018-11-03T04:57:41.596Z,4.73
2018-11-03T04:58:47.752Z,4.70
2018-11-03T04:59:53.881Z,4.68
2018-11-03T05:00:59.517Z,4.60
2018-11-03T05:02:06.162Z,4.57
2018-11-03T05:03:12.288Z,4.50
2018-11-03T05:04:18.442Z,4.45
2018-11-03T05:05:24.071Z,4.43
2018-11-03T05:06:30.205Z,4.52
2018-11-03T05:07:36.834Z,4.53
2018-11-03T05:08:42.960Z,4.49
2018-11-03T05:09:48.665Z,4.48
2018-11-03T05:10:55.231Z,4.54
2018-11-03T05:12:01.357Z,4.56
2018-11-03T05:13:07.557Z,4.54
2018-11-03T05:14:13.617Z,4.55
2018-11-03T05:15:19.759Z,4.59
2018-11-03T05:16:25.895Z,4.57
2018-11-03T05:17:31.522Z,4.60
2018-11-03T05:18:38.649Z,4.60
2018-11-03T05:19:43.784Z,4.58
2018-11-03T05:20:50.419Z,4.66
2018-11-03T05:21:56.049Z,4.73
2018-11-03T05:23:02.678Z,4.68
2018-11-03T05:24:08.792Z,4.60
2018-11-03T05:25:14.936Z,4.56
2018-11-03T05:26:20.562Z,4.57
2018-11-03T05:27:26.702Z,4.65
2018-11-03T05:28:32.818Z,4.70
2018-11-03T05:29:39.431Z,4.74
2018-11-03T05:30:45.564Z,4.78
2018-11-03T05:31:51.685Z,4.78
2018-11-03T05:32:57.821Z,4.74
2018-11-03T05:34:03.943Z,4.84
2018-11-03T05:35:09.592Z,4.95
2018-11-03T05:36:15.716Z,4.94
2018-11-03T05:37:21.848Z,4.89
2018-11-03T05:38:28.456Z,4.82
2018-11-03T05:39:34.093Z,4.78
2018-11-03T05:40:40.226Z,4.71
2018-11-03T05:41:46.348Z,4.59
2018-11-03T05:42:52.970Z,4.53
2018-11-03T05:43:59.090Z,4.49
2018-11-03T05:45:05.238Z,4.44
2018-11-03T05:46:10.862Z,4.44
2018-11-03T05:47:16.987Z,4.39
2018-11-03T05:48:23.099Z,4.36
2018-11-03T05:49:29.726Z,4.33
2018-11-03T05:50:36.847Z,4.30
2018-11-03T05:51:41.586Z,4.26
2018-11-03T05:52:48.086Z,4.20
2018-11-03T05:53:54.218Z,4.19
2018-11-03T05:54:59.839Z,4.20
2018-11-03T05:56:06.460Z,4.23
2018-11-03T05:57:13.574Z,4.19
2018-11-03T05:58:18.700Z,4.20
2018-11-03T05:59:24.820Z,4.29
2018-11-03T06:00:30.460Z,4.25
2018-11-03T06:01:37.074Z,4.23
2018-11-03T06:02:43.195Z,4.24
2018-11-03T06:03:49.310Z,4.30
2018-11-03T06:04:55.431Z,4.29
2018-11-03T06:06:01.069Z,4.26
2018-11-03T06:07:07.688Z,4.25
2018-11-03T06:08:13.820Z,4.22
2018-11-03T06:09:19.437Z,4.21
2018-11-03T06:10:25.556Z,4.24
2018-11-03T06:11:32.170Z,4.26
2018-11-03T06:12:38.341Z,4.25
2018-11-03T06:13:43.922Z,4.21
2018-11-03T06:14:50.049Z,4.16
2018-11-03T06:15:56.162Z,4.18
2018-11-03T06:17:02.770Z,4.16
2018-11-03T06:18:08.396Z,4.17
2018-11-03T06:19:15.004Z,4.19
2018-11-03T06:20:20.634Z,4.21
2018-11-03T06:21:26.751Z,4.19
2018-11-03T06:22:32.869Z,4.14
2018-11-03T06:23:39.080Z,4.07
2018-11-03T06:24:45.595Z,4.05
2018-11-03T06:25:51.708Z,4.00
2018-11-03T06:26:57.832Z,3.97
2018-11-03T06:28:04.048Z,3.91
2018-11-03T06:29:10.067Z,3.90
2018-11-03T06:30:16.186Z,3.94
2018-11-03T06:31:21.810Z,4.05
2018-11-03T06:32:28.418Z,4.06
2018-11-03T06:33:34.833Z,4.08
2018-11-03T06:34:40.185Z,4.08
2018-11-03T06:35:46.766Z,4.09
2018-11-03T06:36:52.888Z,4.14
2018-11-03T06:37:58.992Z,4.26
2018-11-03T06:39:04.713Z,4.30
2018-11-03T06:40:10.737Z,4.28
2018-11-03T06:41:17.348Z,4.32
2018-11-03T06:42:23.569Z,4.42
2018-11-03T06:43:29.087Z,4.45
2018-11-03T06:44:35.204Z,4.44
2018-11-03T06:45:42.813Z,4.45
2018-11-03T06:46:47.662Z,4.49
2018-11-03T06:47:53.565Z,4.55
2018-11-03T06:48:59.687Z,4.61
2018-11-03T06:50:05.805Z,4.59
2018-11-03T06:51:11.942Z,4.59
2018-11-03T06:52:18.647Z,4.57
2018-11-03T06:53:25.664Z,4.58
2018-11-03T06:54:30.800Z,4.62
2018-11-03T06:55:37.002Z,4.73
2018-11-03T06:56:43.051Z,4.85
2018-11-03T06:57:49.165Z,4.95
2018-11-03T06:58:54.793Z,4.98
2018-11-03T07:00:00.912Z,5.04
2018-11-03T07:01:07.577Z,5.00
2018-11-03T07:02:13.667Z,5.02
2018-11-03T07:03:19.799Z,5.01
2018-11-03T07:04:25.454Z,5.01
2018-11-03T07:05:32.055Z,5.03
2018-11-03T07:06:38.196Z,5.02
2018-11-03T07:07:43.816Z,5.01
2018-11-03T07:08:50.431Z,4.94
2018-11-03T07:09:57.070Z,4.93
2018-11-03T07:11:02.704Z,4.96
2018-11-03T07:12:08.854Z,5.04
2018-11-03T07:13:15.003Z,5.10
2018-11-03T07:14:20.613Z,5.16
2018-11-03T07:15:27.248Z,5.22
2018-11-03T07:16:33.035Z,5.25
2018-11-03T07:17:39.035Z,5.30
2018-11-03T07:18:45.650Z,5.29
2018-11-03T07:19:51.599Z,5.34
2018-11-03T07:20:57.504Z,5.38
2018-11-03T07:22:04.580Z,5.41
2018-11-03T07:23:09.742Z,5.44
2018-11-03T07:24:15.869Z,5.50
2018-11-03T07:25:22.009Z,5.56
2018-11-03T07:26:28.659Z,5.60
2018-11-03T07:27:34.294Z,5.66
2018-11-03T07:28:40.435Z,5.68
2018-11-03T07:29:47.101Z,5.63
2018-11-03T07:30:52.739Z,5.61
2018-11-03T07:31:58.922Z,5.64
2018-11-03T07:33:05.019Z,5.69
2018-11-03T07:34:11.659Z,5.76
2018-11-03T07:35:17.809Z,5.79
2018-11-03T07:36:23.949Z,5.81
2018-11-03T07:37:30.096Z,5.84
2018-11-03T07:38:35.753Z,5.84
2018-11-03T07:39:41.943Z,5.83
2018-11-03T07:40:49.406Z,5.85
2018-11-03T07:41:54.711Z,5.84
2018-11-03T07:43:00.356Z,5.81
2018-11-03T07:44:06.537Z,5.73
2018-11-03T07:45:13.155Z,5.67
2018-11-03T07:46:19.308Z,5.65
2018-11-03T07:47:25.585Z,5.69
2018-11-03T07:48:31.176Z,5.70
2018-11-03T07:49:37.764Z,5.70
2018-11-03T07:50:43.427Z,5.66
2018-11-03T07:51:49.593Z,5.67
2018-11-03T07:52:56.232Z,5.65
2018-11-03T07:54:01.904Z,5.62
2018-11-03T07:55:08.541Z,5.58
2018-11-03T07:56:14.690Z,5.55
2018-11-03T07:57:20.840Z,5.57
2018-11-03T07:58:27.007Z,5.59
2018-11-03T07:59:32.680Z,5.62
2018-11-03T08:00:39.316Z,5.66
2018-11-03T08:01:44.977Z,5.73
2018-11-03T08:02:51.613Z,5.72
2018-11-03T08:03:57.399Z,5.72
2018-11-03T08:05:03.945Z,5.74
2018-11-03T08:06:09.582Z,5.75
2018-11-03T08:07:15.749Z,5.75
2018-11-03T08:08:22.404Z,5.82
2018-11-03T08:09:28.554Z,5.87
2018-11-03T08:10:34.220Z,5.89
2018-11-03T08:11:40.874Z,5.93
2018-11-03T08:12:49.456Z,6.02
2018-11-03T08:13:52.687Z,6.10
2018-11-03T08:14:58.855Z,6.11
2018-11-03T08:16:05.564Z,6.14
2018-11-03T08:17:11.679Z,6.14
2018-11-03T08:18:17.832Z,6.21
2018-11-03T08:19:24.000Z,6.24
2018-11-03T08:20:30.154Z,6.25
2018-11-03T08:21:36.334Z,6.24
2018-11-03T08:22:42.005Z,6.24
2018-11-03T08:23:48.684Z,6.26
2018-11-03T08:24:54.350Z,6.27
2018-11-03T08:26:00.490Z,6.34
2018-11-03T08:27:06.704Z,6.40
2018-11-03T08:28:12.817Z,6.40
2018-11-03T08:29:19.570Z,6.40
2018-11-03T08:30:25.685Z,6.39
2018-11-03T08:31:31.366Z,6.38
2018-11-03T08:32:37.578Z,6.39
2018-11-03T08:33:43.661Z,6.41
2018-11-03T08:34:52.064Z,6.44
2018-11-03T08:35:55.997Z,6.48
2018-11-03T08:37:02.172Z,6.54
2018-11-03T08:38:08.826Z,6.56
2018-11-03T08:39:14.517Z,6.59
2018-11-03T08:40:21.181Z,6.61
2018-11-03T08:41:26.868Z,6.63
2018-11-03T08:42:33.572Z,6.63
2018-11-03T08:43:39.697Z,6.59
2018-11-03T08:44:45.888Z,6.55
2018-11-03T08:45:53.044Z,6.56
2018-11-03T08:46:58.236Z,6.55
2018-11-03T08:48:03.918Z,6.52
2018-11-03T08:49:10.101Z,6.51
2018-11-03T08:50:16.254Z,6.51
2018-11-03T08:51:22.430Z,6.51
2018-11-03T08:52:28.602Z,6.52
2018-11-03T08:53:34.784Z,6.51
2018-11-03T08:54:40.973Z,6.50
2018-11-03T08:55:47.140Z,6.52
2018-11-03T08:56:53.371Z,6.54
2018-11-03T08:58:00.054Z,6.54
2018-11-03T08:59:06.170Z,6.55
2018-11-03T09:00:11.937Z,6.58
2018-11-03T09:01:18.506Z,6.59
2018-11-03T09:02:24.682Z,6.60
2018-11-03T09:03:30.856Z,6.59
2018-11-03T09:04:37.043Z,6.59
2018-11-03T09:05:42.724Z,6.62
2018-11-03T09:06:48.912Z,6.63
2018-11-03T09:07:55.085Z,6.62
2018-11-03T09:09:01.261Z,6.66
2018-11-03T09:10:07.937Z,6.72
2018-11-03T09:11:14.111Z,6.73
2018-11-03T09:12:19.804Z,6.75
2018-11-03T09:13:26.471Z,6.77
2018-11-03T09:14:32.168Z,6.81
2018-11-03T09:15:38.344Z,6.84
2018-11-03T09:16:45.041Z,6.84
2018-11-03T09:17:51.209Z,6.90
2018-11-03T09:18:57.396Z,6.93
2018-11-03T09:20:03.641Z,6.98
2018-11-03T09:21:09.267Z,7.07
2018-11-03T09:22:15.947Z,7.12
2018-11-03T09:23:22.131Z,7.19
2018-11-03T09:24:27.834Z,7.24
2018-11-03T09:25:34.119Z,7.32
2018-11-03T09:26:40.204Z,7.39
2018-11-03T09:27:46.910Z,7.42
2018-11-03T09:28:53.168Z,7.43
2018-11-03T09:29:59.286Z,7.44
2018-11-03T09:31:05.975Z,7.46
2018-11-03T09:32:11.184Z,7.55
2018-11-03T09:33:17.370Z,7.63
2018-11-03T09:34:24.141Z,7.73
2018-11-03T09:35:30.255Z,7.76
2018-11-03T09:36:35.961Z,7.81
2018-11-03T09:37:42.158Z,7.85
2018-11-03T09:38:48.465Z,7.90
2018-11-03T09:39:55.033Z,7.90
2018-11-03T09:41:01.247Z,7.94
2018-11-03T09:42:07.441Z,7.94
2018-11-03T09:43:13.661Z,7.91
2018-11-03T09:44:19.843Z,7.86
2018-11-03T09:45:25.546Z,7.85
2018-11-03T09:46:31.753Z,7.84
2018-11-03T09:47:37.955Z,7.84
2018-11-03T09:48:44.152Z,7.85
2018-11-03T09:49:50.858Z,7.84
2018-11-03T09:50:56.604Z,7.90
2018-11-03T09:52:03.279Z,7.93
2018-11-03T09:53:09.567Z,7.94
2018-11-03T09:54:16.736Z,7.90
2018-11-03T09:55:21.388Z,7.89
2018-11-03T09:56:28.112Z,7.90
2018-11-03T09:57:34.305Z,7.88
2018-11-03T09:58:40.031Z,7.87
2018-11-03T09:59:46.227Z,7.90
2018-11-03T10:00:52.422Z,7.95
2018-11-03T10:01:59.137Z,8.02
2018-11-03T10:03:04.858Z,8.07
2018-11-03T10:04:11.571Z,8.09
2018-11-03T10:05:17.286Z,8.08
2018-11-03T10:06:23.528Z,8.03
2018-11-03T10:07:30.232Z,8.03
2018-11-03T10:08:36.960Z,8.05
2018-11-03T10:09:42.700Z,8.07
2018-11-03T10:10:48.927Z,8.07
2018-11-03T10:11:55.146Z,8.08
2018-11-03T10:13:01.410Z,8.06
2018-11-03T10:14:07.627Z,8.09
2018-11-03T10:15:13.875Z,8.11
2018-11-03T10:16:20.106Z,8.16
2018-11-03T10:17:25.872Z,8.18
2018-11-03T10:18:32.961Z,8.22
2018-11-03T10:19:38.340Z,8.33
2018-11-03T10:20:44.615Z,8.32
2018-11-03T10:21:51.327Z,8.31
2018-11-03T10:22:57.149Z,8.34
2018-11-03T10:24:03.823Z,8.41
2018-11-03T10:25:10.088Z,8.48
2018-11-03T10:26:16.312Z,8.47
2018-11-03T10:27:22.095Z,8.48
2018-11-03T10:28:28.828Z,8.52
2018-11-03T10:29:34.578Z,8.54
2018-11-03T10:30:40.830Z,8.62
2018-11-03T10:31:47.587Z,8.67
2018-11-03T10:32:53.823Z,8.62
2018-11-03T10:33:59.581Z,8.60
2018-11-03T10:35:06.844Z,8.64
2018-11-03T10:36:12.098Z,8.70
2018-11-03T10:37:18.356Z,8.72
2018-11-03T10:38:24.612Z,8.71
2018-11-03T10:39:30.867Z,8.73
2018-11-03T10:40:37.616Z,8.79
2018-11-03T10:41:43.880Z,8.86
2018-11-03T10:42:50.162Z,8.95
2018-11-03T10:43:56.398Z,8.99
2018-11-03T10:45:02.164Z,9.06
2018-11-03T10:46:08.969Z,9.06
2018-11-03T10:47:14.697Z,9.07
2018-11-03T10:48:21.459Z,9.11
2018-11-03T10:49:27.712Z,9.21
2018-11-03T10:50:33.618Z,9.33
2018-11-03T10:51:40.245Z,9.41
2018-11-03T10:52:46.532Z,9.45
2018-11-03T10:53:52.777Z,9.44
2018-11-03T10:54:59.056Z,9.44
2018-11-03T10:56:05.369Z,9.52
2018-11-03T10:57:11.596Z,9.63
2018-11-03T10:58:17.887Z,9.67
2018-11-03T10:59:24.181Z,9.65
2018-11-03T11:00:29.931Z,9.69
2018-11-03T11:01:36.220Z,9.78
2018-11-03T11:02:43.003Z,9.84
2018-11-03T11:03:48.773Z,9.89
2018-11-03T11:04:55.577Z,9.93
2018-11-03T11:06:01.847Z,9.93
2018-11-03T11:07:07.627Z,10.00
2018-11-03T11:08:14.422Z,10.07
2018-11-03T11:09:20.705Z,10.12
2018-11-03T11:10:26.986Z,10.10
2018-11-03T11:11:33.315Z,10.10
2018-11-03T11:12:39.589Z,10.09
2018-11-03T11:13:45.905Z,10.12
2018-11-03T11:14:52.225Z,10.13
2018-11-03T11:15:58.735Z,10.14
2018-11-03T11:17:04.478Z,10.17
2018-11-03T11:18:10.826Z,10.19
2018-11-03T11:19:17.211Z,10.24
2018-11-03T11:20:23.607Z,10.23
2018-11-03T11:21:30.032Z,10.28
2018-11-03T11:22:36.960Z,10.33
2018-11-03T11:23:43.419Z,10.38
2018-11-03T11:24:49.383Z,10.46
2018-11-03T11:25:56.319Z,10.49
2018-11-03T11:27:02.302Z,10.48
2018-11-03T11:28:08.806Z,10.44
2018-11-03T11:29:15.288Z,10.44
2018-11-03T11:30:22.797Z,10.52
2018-11-03T11:31:28.887Z,10.46
2018-11-03T11:32:34.906Z,10.45
2018-11-03T11:33:41.901Z,10.54
2018-11-03T11:34:48.452Z,10.65
2018-11-03T11:35:55.015Z,10.73
2018-11-03T11:37:01.579Z,10.77
2018-11-03T11:38:08.159Z,10.78
2018-11-03T11:39:14.246Z,10.85
2018-11-03T11:40:20.835Z,10.91
2018-11-03T11:41:27.934Z,10.92
2018-11-03T11:42:34.092Z,10.95
2018-11-03T11:43:41.175Z,11.02
2018-11-03T11:44:47.743Z,11.04
2018-11-03T11:45:53.879Z,11.03
2018-11-03T11:47:00.991Z,10.96
2018-11-03T11:48:07.615Z,10.98
2018-11-03T11:49:13.757Z,11.05
2018-11-03T11:50:20.884Z,11.08
2018-11-03T11:51:27.015Z,11.06
2018-11-03T11:52:33.659Z,11.07
2018-11-03T11:53:40.795Z,11.04
2018-11-03T11:54:46.956Z,11.00
2018-11-03T11:55:54.091Z,10.99
2018-11-03T11:57:00.218Z,10.98
2018-11-03T11:58:06.849Z,10.95
2018-11-03T11:59:13.778Z,11.04
2018-11-03T12:00:20.167Z,11.14
2018-11-03T12:01:27.275Z,11.19
2018-11-03T12:02:33.506Z,11.17
2018-11-03T12:03:40.551Z,11.16
2018-11-03T12:04:47.191Z,11.14
2018-11-03T12:05:53.822Z,11.17
2018-11-03T12:07:00.470Z,11.14
2018-11-03T12:08:06.628Z,11.11
2018-11-03T12:09:13.280Z,11.15
2018-11-03T12:10:19.948Z,11.16
2018-11-03T12:11:26.562Z,11.20
2018-11-03T12:12:33.711Z,11.22
2018-11-03T12:13:40.350Z,11.26
2018-11-03T12:14:46.557Z,11.26
2018-11-03T12:15:53.160Z,11.30
2018-11-03T12:17:00.310Z,11.37
2018-11-03T12:18:06.471Z,11.38
2018-11-03T12:19:13.126Z,11.36
2018-11-03T12:20:19.784Z,11.30
2018-11-03T12:21:27.925Z,11.29
2018-11-03T12:22:33.590Z,11.27
2018-11-03T12:23:40.259Z,11.24
2018-11-03T12:24:46.433Z,11.26
2018-11-03T12:25:53.101Z,11.32
2018-11-03T12:27:00.301Z,11.34
2018-11-03T12:28:06.439Z,11.33
2018-11-03T12:29:13.116Z,11.40
2018-11-03T12:30:19.778Z,11.44
2018-11-03T12:31:26.948Z,11.47
2018-11-03T12:32:33.123Z,11.59
2018-11-03T12:33:40.295Z,11.66
2018-11-03T12:34:46.484Z,11.60
2018-11-03T12:35:53.171Z,11.50
2018-11-03T12:36:59.839Z,11.42
2018-11-03T12:38:07.037Z,11.43
2018-11-03T12:39:13.197Z,11.40
2018-11-03T12:40:19.863Z,11.44
2018-11-03T12:41:26.563Z,11.57
2018-11-03T12:42:33.216Z,11.66
2018-11-03T12:43:39.892Z,11.66
2018-11-03T12:44:47.068Z,11.65
2018-11-03T12:45:53.748Z,11.63
2018-11-03T12:46:59.920Z,11.57
2018-11-03T12:48:07.093Z,11.49
2018-11-03T12:49:13.274Z,11.48
2018-11-03T12:50:19.932Z,11.53
2018-11-03T12:51:27.097Z,11.56
2018-11-03T12:52:33.284Z,11.56
2018-11-03T12:53:39.961Z,11.56
2018-11-03T12:54:46.591Z,11.55
2018-11-03T12:55:53.255Z,11.50
2018-11-03T12:56:59.934Z,11.57
2018-11-03T12:58:07.092Z,11.66
2018-11-03T12:59:13.308Z,11.68
2018-11-03T13:00:20.453Z,11.70
2018-11-03T13:01:27.151Z,11.77
2018-11-03T13:02:33.334Z,11.79
2018-11-03T13:03:40.561Z,11.80
2018-11-03T13:04:46.764Z,11.77
2018-11-03T13:05:53.426Z,11.80
2018-11-03T13:07:00.629Z,11.80
2018-11-03T13:08:06.845Z,11.75
2018-11-03T13:09:13.561Z,11.72
2018-11-03T13:10:20.281Z,11.69
2018-11-03T13:11:27.014Z,11.72
2018-11-03T13:12:33.730Z,11.69
2018-11-03T13:13:40.435Z,11.71
2018-11-03T13:14:48.148Z,11.74
2018-11-03T13:15:53.866Z,11.75
2018-11-03T13:17:00.568Z,11.75
2018-11-03T13:18:07.278Z,11.66
2018-11-03T13:19:13.998Z,11.67
2018-11-03T13:20:20.683Z,11.72
2018-11-03T13:21:27.391Z,11.68
2018-11-03T13:22:34.099Z,11.61
2018-11-03T13:23:41.263Z,11.56
2018-11-03T13:24:48.439Z,11.50
2018-11-03T13:25:54.117Z,11.47
2018-11-03T13:27:00.800Z,11.50
2018-11-03T13:28:07.565Z,11.56
2018-11-03T13:29:14.641Z,11.63
2018-11-03T13:30:21.303Z,11.67
2018-11-03T13:31:27.573Z,11.74
2018-11-03T13:32:34.646Z,11.78
2018-11-03T13:33:41.314Z,11.80
2018-11-03T13:34:47.562Z,11.81
2018-11-03T13:35:54.156Z,11.77
2018-11-03T13:37:00.838Z,11.69
2018-11-03T13:38:07.501Z,11.72
2018-11-03T13:39:14.667Z,11.74
2018-11-03T13:40:20.842Z,11.78
2018-11-03T13:41:29.004Z,11.78
2018-11-03T13:42:34.175Z,11.77
2018-11-03T13:43:40.832Z,11.74
2018-11-03T13:44:47.584Z,11.70
2018-11-03T13:45:54.125Z,11.62
2018-11-03T13:47:01.302Z,11.63
2018-11-03T13:48:07.410Z,11.62
2018-11-03T13:49:14.532Z,11.66
2018-11-03T13:50:20.666Z,11.64
2018-11-03T13:51:27.287Z,11.61
2018-11-03T13:52:33.903Z,11.59
2018-11-03T13:53:40.523Z,11.61
2018-11-03T13:54:47.147Z,11.69
2018-11-03T13:55:53.766Z,11.70
2018-11-03T13:57:00.396Z,11.68
2018-11-03T13:58:06.987Z,11.72
2018-11-03T13:59:14.107Z,11.72
2018-11-03T14:00:20.214Z,11.74
2018-11-03T14:01:26.842Z,11.70
2018-11-03T14:02:33.565Z,11.67
2018-11-03T14:03:40.550Z,11.63
2018-11-03T14:04:46.666Z,11.61
2018-11-03T14:05:53.750Z,11.61
2018-11-03T14:06:59.855Z,11.60
2018-11-03T14:08:06.445Z,11.56
2018-11-03T14:09:13.581Z,11.59
2018-11-03T14:10:20.099Z,11.60
2018-11-03T14:11:26.215Z,11.66
2018-11-03T14:12:33.808Z,11.70
2018-11-03T14:13:39.371Z,11.71
2018-11-03T14:14:46.462Z,11.74
2018-11-03T14:15:53.031Z,11.75
2018-11-03T14:16:59.140Z,11.76
2018-11-03T14:18:05.716Z,11.78
2018-11-03T14:19:12.816Z,11.82
2018-11-03T14:20:19.410Z,11.79
2018-11-03T14:21:25.582Z,11.78
2018-11-03T14:22:32.080Z,11.81
2018-11-03T14:23:38.813Z,11.78
2018-11-03T14:24:45.253Z,11.78
2018-11-03T14:25:51.830Z,11.79
2018-11-03T14:26:58.914Z,11.78
2018-11-03T14:28:05.059Z,11.75
2018-11-03T14:29:12.145Z,11.70
2018-11-03T14:30:18.149Z,11.69
2018-11-03T14:31:24.712Z,11.69
2018-11-03T14:32:31.277Z,11.73
2018-11-03T14:33:38.342Z,11.72
2018-11-03T14:34:44.417Z,11.72
2018-11-03T14:35:51.594Z,11.67